createdAt,value
2018-12-10T00:00:39.149Z,5.00
2018-12-10T00:01:44.623Z,4.90
2018-12-10T00:02:55.152Z,4.90
2018-12-10T00:04:00.583Z,4.80
2018-12-10T00:05:06.882Z,4.80
2018-12-10T00:06:12.407Z,4.70
2018-12-10T00:07:18.067Z,4.70
2018-12-10T00:08:23.529Z,4.70
2018-12-10T00:09:29.083Z,4.60
2018-12-10T00:10:41.387Z,4.60
2018-12-10T00:11:41.918Z,4.60
2018-12-10T00:12:47.441Z,4.50
2018-12-10T00:13:52.851Z,4.50
2018-12-10T00:14:58.291Z,4.50
2018-12-10T00:16:03.738Z,4.50
2018-12-10T00:17:09.182Z,4.40
2018-12-10T00:18:14.737Z,4.40
2018-12-10T00:19:20.113Z,4.40
2018-12-10T00:20:25.622Z,4.40
2018-12-10T00:21:31.063Z,4.40
2018-12-10T00:22:36.515Z,4.40
2018-12-10T00:23:42.018Z,4.40
2018-12-10T00:24:47.430Z,4.40
2018-12-10T00:25:52.893Z,4.50
2018-12-10T00:26:58.399Z,4.50
2018-12-10T00:28:03.835Z,4.60
2018-12-10T00:29:09.389Z,4.50
2018-12-10T00:30:14.809Z,4.60
2018-12-10T00:31:20.336Z,4.60
2018-12-10T00:32:26.266Z,4.60
2018-12-10T00:33:31.761Z,4.60
2018-12-10T00:34:37.238Z,4.60
2018-12-10T00:35:42.759Z,4.50
2018-12-10T00:36:48.507Z,4.60
2018-12-10T00:37:53.900Z,4.50
2018-12-10T00:38:59.314Z,4.50
2018-12-10T00:40:05.767Z,4.50
2018-12-10T00:41:12.580Z,4.50
2018-12-10T00:42:18.415Z,4.40
2018-12-10T00:43:23.915Z,4.40
2018-12-10T00:44:29.410Z,4.40
2018-12-10T00:45:34.951Z,4.40
2018-12-10T00:46:40.609Z,4.40
2018-12-10T00:47:46.157Z,4.40
2018-12-10T00:48:51.554Z,4.40
2018-12-10T00:49:57.093Z,4.40
2018-12-10T00:51:02.581Z,4.50
2018-12-10T00:52:08.177Z,4.50
2018-12-10T00:53:13.543Z,4.50
2018-12-10T00:54:18.968Z,4.50
2018-12-10T00:55:24.367Z,4.50
2018-12-10T00:56:29.977Z,4.60
2018-12-10T00:57:35.420Z,4.60
2018-12-10T00:58:40.924Z,4.60
2018-12-10T00:59:46.385Z,4.60
2018-12-10T01:00:51.787Z,4.50
2018-12-10T01:01:57.210Z,4.60
2018-12-10T01:03:02.807Z,4.50
2018-12-10T01:04:08.250Z,4.50
2018-12-10T01:05:13.887Z,4.50
2018-12-10T01:06:19.291Z,4.50
2018-12-10T01:07:24.900Z,4.50
2018-12-10T01:08:30.382Z,4.40
2018-12-10T01:09:35.776Z,4.40
2018-12-10T01:10:41.349Z,4.40
2018-12-10T01:11:46.771Z,4.40
2018-12-10T01:12:52.162Z,4.40
2018-12-10T01:13:57.674Z,4.40
2018-12-10T01:15:03.267Z,4.30
2018-12-10T01:16:08.666Z,4.40
2018-12-10T01:17:14.076Z,4.30
2018-12-10T01:18:19.499Z,4.30
2018-12-10T01:19:24.957Z,4.30
2018-12-10T01:20:30.488Z,4.30
2018-12-10T01:21:35.875Z,4.20
2018-12-10T01:22:41.381Z,4.30
2018-12-10T01:23:46.813Z,4.20
2018-12-10T01:24:52.248Z,4.20
2018-12-10T01:25:57.743Z,4.30
2018-12-10T01:27:03.211Z,4.30
2018-12-10T01:28:08.582Z,4.30
2018-12-10T01:29:14.019Z,4.30
2018-12-10T01:30:19.538Z,4.30
2018-12-10T01:31:24.964Z,4.30
2018-12-10T01:32:30.502Z,4.20
2018-12-10T01:33:35.865Z,4.20
2018-12-10T01:34:41.254Z,4.20
2018-12-10T01:35:46.856Z,4.20
2018-12-10T01:36:52.262Z,4.20
2018-12-10T01:37:57.735Z,4.20
2018-12-10T01:39:04.526Z,4.20
2018-12-10T01:40:10.110Z,4.20
2018-12-10T01:41:15.542Z,4.20
2018-12-10T01:42:20.927Z,4.20
2018-12-10T01:43:26.389Z,4.20
2018-12-10T01:44:31.825Z,4.20
2018-12-10T01:45:37.195Z,4.20
2018-12-10T01:46:42.919Z,4.20
2018-12-10T01:47:48.512Z,4.20
2018-12-10T01:48:53.917Z,4.20
2018-12-10T01:49:59.632Z,4.20
2018-12-10T01:51:05.194Z,4.20
2018-12-10T01:52:10.666Z,4.20
2018-12-10T01:53:16.071Z,4.30
2018-12-10T01:54:21.470Z,4.30
2018-12-10T01:55:26.872Z,4.40
2018-12-10T01:56:32.347Z,4.40
2018-12-10T01:57:37.716Z,4.40
2018-12-10T01:58:43.131Z,4.40
2018-12-10T01:59:48.603Z,4.50
2018-12-10T02:00:54.071Z,4.60
2018-12-10T02:01:59.636Z,4.50
2018-12-10T02:03:05.018Z,4.50
2018-12-10T02:04:10.436Z,4.60
2018-12-10T02:05:15.919Z,4.60
2018-12-10T02:06:21.315Z,4.60
2018-12-10T02:07:26.792Z,4.60
2018-12-10T02:08:32.231Z,4.60
2018-12-10T02:09:37.636Z,4.50
2018-12-10T02:10:43.105Z,4.50
2018-12-10T02:11:48.555Z,4.50
2018-12-10T02:12:54.094Z,4.40
2018-12-10T02:13:59.598Z,4.40
2018-12-10T02:15:06.215Z,4.40
2018-12-10T02:16:11.690Z,4.40
2018-12-10T02:17:17.133Z,4.30
2018-12-10T02:18:22.529Z,4.40
2018-12-10T02:19:27.945Z,4.30
2018-12-10T02:20:33.334Z,4.30
2018-12-10T02:21:38.743Z,4.30
2018-12-10T02:22:44.195Z,4.30
2018-12-10T02:23:49.663Z,4.30
2018-12-10T02:24:55.115Z,4.20
2018-12-10T02:26:00.489Z,4.20
2018-12-10T02:27:05.923Z,4.20
2018-12-10T02:28:11.327Z,4.20
2018-12-10T02:29:16.870Z,4.20
2018-12-10T02:30:22.275Z,4.10
2018-12-10T02:31:27.648Z,4.10
2018-12-10T02:32:33.195Z,4.10
2018-12-10T02:33:39.494Z,4.10
2018-12-10T02:34:45.261Z,4.10
2018-12-10T02:35:50.817Z,4.10
2018-12-10T02:36:56.291Z,4.00
2018-12-10T02:38:01.783Z,4.00
2018-12-10T02:39:07.655Z,4.00
2018-12-10T02:40:13.233Z,4.00
2018-12-10T02:41:18.677Z,3.90
2018-12-10T02:42:24.066Z,4.00
2018-12-10T02:43:29.536Z,4.00
2018-12-10T02:44:34.922Z,4.00
2018-12-10T02:45:40.323Z,4.00
2018-12-10T02:46:45.775Z,4.00
2018-12-10T02:47:51.168Z,4.00
2018-12-10T02:48:56.743Z,4.00
2018-12-10T02:50:02.195Z,4.00
2018-12-10T02:51:07.607Z,4.00
2018-12-10T02:52:13.216Z,4.00
2018-12-10T02:53:18.676Z,3.90
2018-12-10T02:54:24.062Z,4.00
2018-12-10T02:55:29.528Z,3.90
2018-12-10T02:56:35.014Z,3.90
2018-12-10T02:57:40.467Z,3.90
2018-12-10T02:58:45.907Z,3.90
2018-12-10T02:59:51.295Z,3.90
2018-12-10T03:00:56.724Z,3.90
2018-12-10T03:02:02.112Z,3.90
2018-12-10T03:03:08.827Z,3.90
2018-12-10T03:04:14.366Z,3.90
2018-12-10T03:05:19.814Z,3.90
2018-12-10T03:06:25.474Z,3.90
2018-12-10T03:07:30.946Z,3.90
2018-12-10T03:08:36.350Z,3.90
2018-12-10T03:09:41.800Z,3.90
2018-12-10T03:10:47.255Z,3.90
2018-12-10T03:11:52.684Z,3.90
2018-12-10T03:12:58.075Z,3.90
2018-12-10T03:14:04.084Z,4.00
2018-12-10T03:15:09.526Z,4.00
2018-12-10T03:16:14.950Z,4.00
2018-12-10T03:17:20.522Z,4.00
2018-12-10T03:18:25.908Z,4.00
2018-12-10T03:19:31.471Z,4.00
2018-12-10T03:20:36.851Z,4.00
2018-12-10T03:21:42.300Z,4.00
2018-12-10T03:22:47.759Z,4.00
2018-12-10T03:23:53.215Z,4.00
2018-12-10T03:24:58.681Z,4.00
2018-12-10T03:26:04.128Z,4.00
2018-12-10T03:27:09.547Z,4.10
2018-12-10T03:28:15.077Z,4.10
2018-12-10T03:29:20.492Z,4.20
2018-12-10T03:30:25.926Z,4.20
2018-12-10T03:31:31.337Z,4.20
2018-12-10T03:32:36.838Z,4.20
2018-12-10T03:33:42.287Z,4.30
2018-12-10T03:34:47.669Z,4.30
2018-12-10T03:35:53.145Z,4.30
2018-12-10T03:36:58.598Z,4.30
2018-12-10T03:38:04.000Z,4.30
2018-12-10T03:39:09.422Z,4.30
2018-12-10T03:40:14.803Z,4.30
2018-12-10T03:41:20.230Z,4.30
2018-12-10T03:42:25.819Z,4.30
2018-12-10T03:43:31.242Z,4.30
2018-12-10T03:44:36.687Z,4.30
2018-12-10T03:45:42.079Z,4.30
2018-12-10T03:46:47.480Z,4.40
2018-12-10T03:47:52.911Z,4.40
2018-12-10T03:48:58.347Z,4.50
2018-12-10T03:50:04.556Z,4.50
2018-12-10T03:51:10.009Z,4.50
2018-12-10T03:52:15.444Z,4.60
2018-12-10T03:53:20.843Z,4.60
2018-12-10T03:54:26.232Z,4.60
2018-12-10T03:55:31.642Z,4.60
2018-12-10T03:56:37.011Z,4.60
2018-12-10T03:57:42.537Z,4.60
2018-12-10T03:58:47.936Z,4.60
2018-12-10T03:59:53.313Z,4.70
2018-12-10T04:00:58.844Z,4.70
2018-12-10T04:02:04.318Z,4.70
2018-12-10T04:03:09.886Z,4.70
2018-12-10T04:04:15.290Z,4.70
2018-12-10T04:05:20.736Z,4.70
2018-12-10T04:06:26.234Z,4.70
2018-12-10T04:07:31.704Z,4.70
2018-12-10T04:08:37.116Z,4.70
2018-12-10T04:09:42.604Z,4.70
2018-12-10T04:10:48.146Z,4.70
2018-12-10T04:11:53.596Z,4.70
2018-12-10T04:12:59.132Z,4.70
2018-12-10T04:14:04.682Z,4.70
2018-12-10T04:15:10.410Z,4.70
2018-12-10T04:16:16.119Z,4.60
2018-12-10T04:17:21.540Z,4.60
2018-12-10T04:18:27.036Z,4.60
2018-12-10T04:19:32.515Z,4.50
2018-12-10T04:20:37.924Z,4.40
2018-12-10T04:21:43.365Z,4.40
2018-12-10T04:22:48.793Z,4.30
2018-12-10T04:23:54.243Z,4.30
2018-12-10T04:24:59.722Z,4.30
2018-12-10T04:26:05.368Z,4.30
2018-12-10T04:27:11.038Z,4.30
2018-12-10T04:28:18.286Z,4.30
2018-12-10T04:29:23.669Z,4.40
2018-12-10T04:30:29.162Z,4.30
2018-12-10T04:31:36.343Z,4.30
2018-12-10T04:32:42.151Z,4.30
2018-12-10T04:33:47.702Z,4.30
2018-12-10T04:34:53.066Z,4.30
2018-12-10T04:35:58.525Z,4.30
2018-12-10T04:37:03.985Z,4.20
2018-12-10T04:38:09.564Z,4.30
2018-12-10T04:39:14.978Z,4.20
2018-12-10T04:40:20.375Z,4.20
2018-12-10T04:41:25.849Z,4.20
2018-12-10T04:42:31.409Z,4.30
2018-12-10T04:43:37.214Z,4.30
2018-12-10T04:44:42.631Z,4.30
2018-12-10T04:45:48.067Z,4.30
2018-12-10T04:46:53.789Z,4.30
2018-12-10T04:47:59.461Z,4.30
2018-12-10T04:49:05.000Z,4.30
2018-12-10T04:50:10.483Z,4.30
2018-12-10T04:51:15.988Z,4.30
2018-12-10T04:52:21.377Z,4.30
2018-12-10T04:53:27.011Z,4.30
2018-12-10T04:54:32.572Z,4.30
2018-12-10T04:55:38.035Z,4.30
2018-12-10T04:56:43.457Z,4.20
2018-12-10T04:57:48.973Z,4.20
2018-12-10T04:58:54.372Z,4.10
2018-12-10T04:59:59.802Z,4.10
2018-12-10T05:01:05.476Z,4.10
2018-12-10T05:02:11.007Z,4.00
2018-12-10T05:03:20.565Z,4.10
2018-12-10T05:04:26.039Z,4.10
2018-12-10T05:05:31.598Z,4.10
2018-12-10T05:06:37.024Z,4.10
2018-12-10T05:07:42.515Z,4.10
2018-12-10T05:08:48.017Z,4.10
2018-12-10T05:09:53.559Z,4.00
2018-12-10T05:10:59.651Z,4.00
2018-12-10T05:12:05.247Z,4.00
2018-12-10T05:13:10.675Z,3.90
2018-12-10T05:14:16.107Z,3.90
2018-12-10T05:15:21.644Z,3.90
2018-12-10T05:16:27.086Z,3.90
2018-12-10T05:17:32.551Z,3.90
2018-12-10T05:18:38.040Z,3.90
2018-12-10T05:19:43.483Z,3.90
2018-12-10T05:20:48.983Z,3.90
2018-12-10T05:21:54.411Z,3.90
2018-12-10T05:22:59.959Z,3.90
2018-12-10T05:24:05.576Z,3.90
2018-12-10T05:25:11.216Z,3.80
2018-12-10T05:26:16.705Z,3.80
2018-12-10T05:27:22.119Z,3.80
2018-12-10T05:28:27.545Z,3.70
2018-12-10T05:29:33.078Z,3.70
2018-12-10T05:30:38.531Z,3.70
2018-12-10T05:31:43.990Z,3.70
2018-12-10T05:32:49.622Z,3.60
2018-12-10T05:33:55.091Z,3.70
2018-12-10T05:35:00.713Z,3.60
2018-12-10T05:36:06.223Z,3.60
2018-12-10T05:37:11.679Z,3.60
2018-12-10T05:38:17.104Z,3.60
2018-12-10T05:39:22.591Z,3.60
2018-12-10T05:40:28.178Z,3.50
2018-12-10T05:41:33.618Z,3.60
2018-12-10T05:42:39.224Z,3.60
2018-12-10T05:43:44.687Z,3.60
2018-12-10T05:44:50.122Z,3.50
2018-12-10T05:45:55.780Z,3.50
2018-12-10T05:47:01.252Z,3.50
2018-12-10T05:48:06.687Z,3.50
2018-12-10T05:49:12.226Z,3.60
2018-12-10T05:50:17.720Z,3.60
2018-12-10T05:51:23.298Z,3.60
2018-12-10T05:52:28.819Z,3.70
2018-12-10T05:53:34.248Z,3.70
2018-12-10T05:54:39.660Z,3.70
2018-12-10T05:55:45.150Z,3.70
2018-12-10T05:56:50.583Z,3.70
2018-12-10T05:57:56.013Z,3.70
2018-12-10T05:59:01.476Z,3.70
2018-12-10T06:00:07.275Z,3.80
2018-12-10T06:01:12.723Z,3.80
2018-12-10T06:02:18.184Z,3.80
2018-12-10T06:03:23.692Z,3.70
2018-12-10T06:04:29.183Z,3.80
2018-12-10T06:05:41.155Z,3.80
2018-12-10T06:06:46.599Z,3.80
2018-12-10T06:07:52.065Z,3.80
2018-12-10T06:08:57.513Z,3.80
2018-12-10T06:10:03.125Z,3.80
2018-12-10T06:11:08.617Z,3.80
2018-12-10T06:12:14.057Z,3.80
2018-12-10T06:13:19.458Z,3.80
2018-12-10T06:14:24.918Z,3.80
2018-12-10T06:15:30.459Z,3.80
2018-12-10T06:16:36.007Z,3.80
2018-12-10T06:17:41.463Z,3.80
2018-12-10T06:18:46.912Z,3.80
2018-12-10T06:19:52.392Z,3.80
2018-12-10T06:20:57.997Z,3.90
2018-12-10T06:22:03.577Z,3.90
2018-12-10T06:23:08.966Z,3.90
2018-12-10T06:24:14.351Z,3.90
2018-12-10T06:25:19.986Z,3.90
2018-12-10T06:26:25.430Z,3.90
2018-12-10T06:27:30.886Z,3.90
2018-12-10T06:28:36.287Z,3.90
2018-12-10T06:29:41.852Z,3.90
2018-12-10T06:30:47.314Z,3.80
2018-12-10T06:31:52.738Z,3.90
2018-12-10T06:32:58.192Z,3.90
2018-12-10T06:34:03.667Z,3.90
2018-12-10T06:35:09.340Z,3.80
2018-12-10T06:36:14.833Z,3.80
2018-12-10T06:37:20.267Z,3.80
2018-12-10T06:38:25.863Z,3.80
2018-12-10T06:39:31.343Z,3.80
2018-12-10T06:40:36.847Z,3.70
2018-12-10T06:41:42.272Z,3.70
2018-12-10T06:42:47.855Z,3.70
2018-12-10T06:43:53.335Z,3.70
2018-12-10T06:44:58.739Z,3.70
2018-12-10T06:46:04.283Z,3.70
2018-12-10T06:47:09.718Z,3.70
2018-12-10T06:48:15.209Z,3.70
2018-12-10T06:49:20.655Z,3.70
2018-12-10T06:51:28.783Z,3.70
2018-12-10T06:52:34.231Z,3.70
2018-12-10T06:53:39.707Z,3.70
2018-12-10T06:54:45.170Z,3.70
2018-12-10T06:55:50.557Z,3.70
2018-12-10T06:56:56.106Z,3.70
2018-12-10T06:58:01.623Z,3.70
2018-12-10T06:59:07.170Z,3.70
2018-12-10T07:00:13.832Z,3.70
2018-12-10T07:01:19.276Z,3.70
2018-12-10T07:02:24.699Z,3.60
2018-12-10T07:03:30.193Z,3.70
2018-12-10T07:04:35.725Z,3.70
2018-12-10T07:05:41.179Z,3.70
2018-12-10T07:06:46.615Z,3.60
2018-12-10T07:07:52.130Z,3.60
2018-12-10T07:08:57.771Z,3.60
2018-12-10T07:10:04.234Z,3.60
2018-12-10T07:11:09.657Z,3.60
2018-12-10T07:12:15.124Z,3.60
2018-12-10T07:13:20.558Z,3.60
2018-12-10T07:14:26.063Z,3.70
2018-12-10T07:15:31.459Z,3.60
2018-12-10T07:16:37.041Z,3.70
2018-12-10T07:17:42.456Z,3.60
2018-12-10T07:18:47.866Z,3.60
2018-12-10T07:19:53.335Z,3.70
2018-12-10T07:20:58.918Z,3.70
2018-12-10T07:22:04.410Z,3.80
2018-12-10T07:23:09.865Z,3.70
2018-12-10T07:24:15.310Z,3.80
2018-12-10T07:25:20.736Z,3.80
2018-12-10T07:26:26.511Z,3.80
2018-12-10T07:27:31.959Z,3.80
2018-12-10T07:28:38.040Z,3.90
2018-12-10T07:29:43.600Z,3.90
2018-12-10T07:30:48.969Z,3.90
2018-12-10T07:31:55.020Z,4.00
2018-12-10T07:33:00.445Z,4.00
2018-12-10T07:34:05.876Z,4.00
2018-12-10T07:35:11.359Z,4.00
2018-12-10T07:36:16.784Z,4.00
2018-12-10T07:37:22.236Z,4.10
2018-12-10T07:38:27.695Z,4.10
2018-12-10T07:39:33.103Z,4.20
2018-12-10T07:40:38.535Z,4.20
2018-12-10T07:41:43.957Z,4.20
2018-12-10T07:42:49.435Z,4.20
2018-12-10T07:43:54.835Z,4.20
2018-12-10T07:45:00.264Z,4.20
2018-12-10T07:46:05.700Z,4.10
2018-12-10T07:47:11.122Z,4.10
2018-12-10T07:48:16.524Z,4.10
2018-12-10T07:49:21.909Z,4.00
2018-12-10T07:50:27.594Z,3.90
2018-12-10T07:51:33.100Z,3.90
2018-12-10T07:52:38.651Z,3.90
2018-12-10T07:53:44.215Z,3.80
2018-12-10T07:54:49.704Z,3.80
2018-12-10T07:55:55.165Z,3.70
2018-12-10T07:57:00.736Z,3.70
2018-12-10T07:58:06.111Z,3.70
2018-12-10T07:59:11.588Z,3.60
2018-12-10T08:00:16.998Z,3.60
2018-12-10T08:01:22.575Z,3.60
2018-12-10T08:02:28.088Z,3.60
2018-12-10T08:03:33.601Z,3.50
2018-12-10T08:04:39.024Z,3.50
2018-12-10T08:05:44.509Z,3.50
2018-12-10T08:06:49.899Z,3.60
2018-12-10T08:07:55.372Z,3.60
2018-12-10T08:09:00.880Z,3.60
2018-12-10T08:10:07.301Z,3.70
2018-12-10T08:11:12.721Z,3.70
2018-12-10T08:12:18.143Z,3.80
2018-12-10T08:13:23.535Z,3.80
2018-12-10T08:14:29.012Z,3.90
2018-12-10T08:15:34.465Z,3.90
2018-12-10T08:16:39.977Z,3.90
2018-12-10T08:17:45.595Z,3.90
2018-12-10T08:18:51.218Z,4.00
2018-12-10T08:19:56.720Z,3.90
2018-12-10T08:21:02.736Z,3.90
2018-12-10T08:22:08.450Z,4.00
2018-12-10T08:23:13.886Z,3.90
2018-12-10T08:24:19.371Z,3.80
2018-12-10T08:25:24.885Z,3.80
2018-12-10T08:26:30.467Z,3.80
2018-12-10T08:27:35.863Z,3.70
2018-12-10T08:28:41.291Z,3.60
2018-12-10T08:29:46.811Z,3.60
2018-12-10T08:30:52.383Z,3.50
2018-12-10T08:31:58.129Z,3.50
2018-12-10T08:33:03.906Z,3.40
2018-12-10T08:34:09.484Z,3.40
2018-12-10T08:35:15.075Z,3.40
2018-12-10T08:36:20.498Z,3.30
2018-12-10T08:37:25.939Z,3.30
2018-12-10T08:38:31.418Z,3.30
2018-12-10T08:39:36.883Z,3.20
2018-12-10T08:40:42.331Z,3.20
2018-12-10T08:41:47.778Z,3.20
2018-12-10T08:42:53.200Z,3.20
2018-12-10T08:43:58.708Z,3.10
2018-12-10T08:45:05.080Z,3.20
2018-12-10T08:46:10.645Z,3.10
2018-12-10T08:47:16.487Z,3.10
2018-12-10T08:48:22.168Z,3.20
2018-12-10T08:49:27.718Z,3.20
2018-12-10T08:50:33.350Z,3.20
2018-12-10T08:51:39.090Z,3.20
2018-12-10T08:52:44.739Z,3.30
2018-12-10T08:53:50.187Z,3.30
2018-12-10T08:54:55.782Z,3.30
2018-12-10T08:56:01.299Z,3.30
2018-12-10T08:57:07.062Z,3.30
2018-12-10T08:58:12.771Z,3.30
2018-12-10T08:59:18.318Z,3.40
2018-12-10T09:00:23.720Z,3.40
2018-12-10T09:01:29.317Z,3.40
2018-12-10T09:02:34.943Z,3.40
2018-12-10T09:03:40.383Z,3.50
2018-12-10T09:04:45.755Z,3.40
2018-12-10T09:05:51.306Z,3.50
2018-12-10T09:06:56.683Z,3.50
2018-12-10T09:08:02.233Z,3.50
2018-12-10T09:09:08.281Z,3.60
2018-12-10T09:10:13.862Z,3.60
2018-12-10T09:11:19.307Z,3.60
2018-12-10T09:12:24.802Z,3.70
2018-12-10T09:13:30.279Z,3.70
2018-12-10T09:14:35.822Z,3.70
2018-12-10T09:15:41.561Z,3.70
2018-12-10T09:16:47.067Z,3.80
2018-12-10T09:17:52.579Z,3.80
2018-12-10T09:18:58.095Z,3.80
2018-12-10T09:20:03.987Z,3.90
2018-12-10T09:21:09.596Z,3.90
2018-12-10T09:22:15.119Z,3.90
2018-12-10T09:23:20.875Z,3.90
2018-12-10T09:24:26.425Z,4.00
2018-12-10T09:25:32.023Z,4.00
2018-12-10T09:26:37.709Z,4.10
2018-12-10T09:27:43.123Z,4.10
2018-12-10T09:28:48.663Z,4.20
2018-12-10T09:29:54.080Z,4.30
2018-12-10T09:30:59.582Z,4.30
2018-12-10T09:32:05.082Z,4.30
2018-12-10T09:33:10.651Z,4.40
2018-12-10T09:34:16.122Z,4.40
2018-12-10T09:35:21.526Z,4.40
2018-12-10T09:36:27.150Z,4.50
2018-12-10T09:37:32.583Z,4.50
2018-12-10T09:38:38.047Z,4.50
2018-12-10T09:39:43.490Z,4.50
2018-12-10T09:40:48.915Z,4.50
2018-12-10T09:41:54.420Z,4.50
2018-12-10T09:42:59.864Z,4.40
2018-12-10T09:44:05.880Z,4.40
2018-12-10T09:45:11.639Z,4.40
2018-12-10T09:46:17.053Z,4.30
2018-12-10T09:47:22.919Z,4.30
2018-12-10T09:48:28.316Z,4.20
2018-12-10T09:49:33.733Z,4.20
2018-12-10T09:50:39.173Z,4.20
2018-12-10T09:51:44.616Z,4.20
2018-12-10T09:52:50.083Z,4.20
2018-12-10T09:53:55.451Z,4.10
2018-12-10T09:55:00.860Z,4.10
2018-12-10T09:56:06.407Z,4.00
2018-12-10T09:57:11.822Z,4.00
2018-12-10T09:58:17.219Z,4.00
2018-12-10T09:59:22.658Z,4.00
2018-12-10T10:00:28.347Z,4.10
2018-12-10T10:01:34.780Z,4.20
2018-12-10T10:02:40.218Z,4.40
2018-12-10T10:03:45.663Z,4.50
2018-12-10T10:04:51.058Z,4.60
2018-12-10T10:05:56.486Z,4.70
2018-12-10T10:07:02.015Z,4.70
2018-12-10T10:08:07.476Z,4.70
2018-12-10T10:09:12.895Z,4.70
2018-12-10T10:10:18.348Z,4.70
2018-12-10T10:11:23.911Z,4.60
2018-12-10T10:12:29.567Z,4.60
2018-12-10T10:13:34.973Z,4.50
2018-12-10T10:14:40.443Z,4.50
2018-12-10T10:15:45.946Z,4.60
2018-12-10T10:16:51.623Z,4.60
2018-12-10T10:17:58.899Z,4.70
2018-12-10T10:19:04.654Z,4.80
2018-12-10T10:20:10.059Z,4.80
2018-12-10T10:21:15.566Z,4.90
2018-12-10T10:22:20.995Z,4.90
2018-12-10T10:23:26.583Z,5.00
2018-12-10T10:24:31.989Z,5.00
2018-12-10T10:25:37.375Z,5.00
2018-12-10T10:26:42.755Z,5.00
2018-12-10T10:27:48.217Z,5.10
2018-12-10T10:28:53.720Z,5.10
2018-12-10T10:29:59.123Z,5.10
2018-12-10T10:31:04.653Z,5.20
2018-12-10T10:32:10.046Z,5.20
2018-12-10T10:33:15.446Z,5.30
2018-12-10T10:34:20.947Z,5.40
2018-12-10T10:35:26.332Z,5.50
2018-12-10T10:36:31.766Z,5.50
2018-12-10T10:37:37.203Z,5.50
2018-12-10T10:38:42.678Z,5.60
2018-12-10T10:39:48.188Z,5.60
2018-12-10T10:40:53.571Z,5.60
2018-12-10T10:41:59.704Z,5.60
2018-12-10T10:43:05.137Z,5.60
2018-12-10T10:44:10.609Z,5.70
2018-12-10T10:45:16.169Z,5.70
2018-12-10T10:46:21.731Z,5.80
2018-12-10T10:47:27.125Z,5.80
2018-12-10T10:48:32.516Z,5.80
2018-12-10T10:49:37.905Z,5.80
2018-12-10T10:50:43.367Z,5.80
2018-12-10T10:51:48.763Z,5.80
2018-12-10T10:52:54.360Z,5.80
2018-12-10T10:53:59.857Z,5.90
2018-12-10T10:55:06.306Z,5.80
2018-12-10T10:56:11.768Z,5.80
2018-12-10T10:57:17.231Z,5.80
2018-12-10T10:58:22.694Z,5.80
2018-12-10T10:59:28.976Z,5.80
2018-12-10T11:00:39.706Z,5.80
2018-12-10T11:01:50.451Z,5.80
2018-12-10T11:03:59.391Z,5.80
2018-12-10T11:05:05.946Z,5.80
2018-12-10T11:06:11.431Z,5.80
2018-12-10T11:07:16.899Z,5.80
2018-12-10T11:08:22.422Z,5.80
2018-12-10T11:09:27.827Z,5.80
2018-12-10T11:10:33.289Z,5.70
2018-12-10T11:11:38.763Z,5.70
2018-12-10T11:12:44.257Z,5.70
2018-12-10T11:13:49.774Z,5.70
2018-12-10T11:14:55.533Z,5.70
2018-12-10T11:16:00.892Z,5.80
2018-12-10T11:17:06.305Z,5.90
2018-12-10T11:18:11.846Z,5.90
2018-12-10T11:19:18.296Z,5.90
2018-12-10T11:20:23.947Z,5.90
2018-12-10T11:21:29.496Z,5.90
2018-12-10T11:22:34.998Z,5.90
2018-12-10T11:23:41.489Z,6.00
2018-12-10T11:24:47.074Z,6.10
2018-12-10T11:25:52.685Z,6.10
2018-12-10T11:26:58.088Z,6.20
2018-12-10T11:28:03.961Z,6.30
2018-12-10T11:29:09.380Z,6.30
2018-12-10T11:30:14.842Z,6.30
2018-12-10T11:31:20.260Z,6.40
2018-12-10T11:32:25.864Z,6.40
2018-12-10T11:33:31.523Z,6.40
2018-12-10T11:34:37.024Z,6.50
2018-12-10T11:35:42.477Z,6.50
2018-12-10T11:36:47.977Z,6.60
2018-12-10T11:37:53.652Z,6.60
2018-12-10T11:38:59.102Z,6.70
2018-12-10T11:40:04.828Z,6.70
2018-12-10T11:41:10.238Z,6.70
2018-12-10T11:42:15.695Z,6.70
2018-12-10T11:43:21.087Z,6.70
2018-12-10T11:44:26.484Z,6.70
2018-12-10T11:45:32.021Z,6.70
2018-12-10T11:46:37.496Z,6.60
2018-12-10T11:47:42.903Z,6.70
2018-12-10T11:48:48.372Z,6.70
2018-12-10T11:49:53.767Z,6.70
2018-12-10T11:50:59.297Z,6.70
2018-12-10T11:52:04.805Z,6.80
2018-12-10T11:53:10.552Z,6.90
2018-12-10T11:54:15.960Z,7.00
2018-12-10T11:55:21.379Z,7.10
2018-12-10T11:56:26.814Z,7.20
2018-12-10T11:57:32.310Z,7.30
2018-12-10T11:58:37.789Z,7.30
2018-12-10T11:59:43.232Z,7.40
2018-12-10T12:00:48.620Z,7.50
2018-12-10T12:01:54.127Z,7.60
2018-12-10T12:02:59.503Z,7.50
2018-12-10T12:04:05.103Z,7.50
2018-12-10T12:05:10.510Z,7.40
2018-12-10T12:06:16.029Z,7.30
2018-12-10T12:07:21.746Z,7.20
2018-12-10T12:08:27.137Z,7.10
2018-12-10T12:09:32.562Z,7.00
2018-12-10T12:10:37.998Z,7.00
2018-12-10T12:11:43.459Z,6.90
2018-12-10T12:12:49.078Z,6.80
2018-12-10T12:13:54.503Z,6.40
2018-12-10T12:14:59.995Z,6.20
2018-12-10T12:16:05.629Z,5.90
2018-12-10T12:17:11.111Z,5.70
2018-12-10T12:18:16.614Z,5.50
2018-12-10T12:19:22.086Z,5.40
2018-12-10T12:20:27.506Z,5.20
2018-12-10T12:21:33.203Z,5.20
2018-12-10T12:22:38.594Z,5.00
2018-12-10T12:23:51.319Z,4.90
2018-12-10T12:24:57.745Z,4.80
2018-12-10T12:26:03.163Z,4.70
2018-12-10T12:27:08.618Z,4.70
2018-12-10T12:28:14.105Z,4.60
2018-12-10T12:29:19.544Z,4.60
2018-12-10T12:30:24.927Z,4.60
2018-12-10T12:31:30.585Z,4.50
2018-12-10T12:32:36.195Z,4.50
2018-12-10T12:33:41.727Z,4.50
2018-12-10T12:34:47.146Z,4.50
2018-12-10T12:35:52.671Z,4.40
2018-12-10T12:36:58.151Z,4.40
2018-12-10T12:38:03.693Z,4.30
2018-12-10T12:39:09.192Z,4.30
2018-12-10T12:40:14.992Z,4.30
2018-12-10T12:41:20.500Z,4.30
2018-12-10T12:42:26.175Z,4.30
2018-12-10T12:43:31.846Z,4.30
2018-12-10T12:44:37.299Z,4.40
2018-12-10T12:45:42.800Z,4.40
2018-12-10T12:46:48.246Z,4.40
2018-12-10T12:47:53.880Z,4.40
2018-12-10T12:48:59.448Z,4.40
2018-12-10T12:50:05.890Z,4.50
2018-12-10T12:51:11.315Z,4.40
2018-12-10T12:52:16.878Z,4.40
2018-12-10T12:53:22.326Z,4.40
2018-12-10T12:54:27.812Z,4.30
2018-12-10T12:55:33.303Z,4.30
2018-12-10T12:56:38.782Z,4.30
2018-12-10T12:57:44.382Z,4.30
2018-12-10T12:58:49.794Z,4.30
2018-12-10T12:59:55.190Z,4.30
2018-12-10T13:01:00.656Z,4.30
2018-12-10T13:02:06.296Z,4.30
2018-12-10T13:03:11.904Z,4.30
2018-12-10T13:04:17.367Z,4.40
2018-12-10T13:05:22.868Z,4.30
2018-12-10T13:06:28.261Z,4.30
2018-12-10T13:07:33.657Z,4.30
2018-12-10T13:08:39.150Z,4.30
2018-12-10T13:09:44.602Z,4.30
2018-12-10T13:10:49.966Z,4.30
2018-12-10T13:11:55.505Z,4.40
2018-12-10T13:13:00.958Z,4.40
2018-12-10T13:14:06.457Z,4.40
2018-12-10T13:15:11.980Z,4.50
2018-12-10T13:16:17.454Z,4.50
2018-12-10T13:17:22.947Z,4.60
2018-12-10T13:18:28.366Z,4.60
2018-12-10T13:19:33.955Z,4.70
2018-12-10T13:20:39.712Z,4.70
2018-12-10T13:21:45.640Z,4.70
2018-12-10T13:22:51.135Z,4.70
2018-12-10T13:23:56.571Z,4.70
2018-12-10T13:25:02.115Z,4.70
2018-12-10T13:26:07.551Z,4.60
2018-12-10T13:27:12.969Z,4.60
2018-12-10T13:28:18.438Z,4.60
2018-12-10T13:29:31.001Z,4.60
2018-12-10T13:30:31.518Z,4.70
2018-12-10T13:31:37.117Z,4.70
2018-12-10T13:32:42.564Z,4.70
2018-12-10T13:33:47.987Z,4.80
2018-12-10T13:34:53.628Z,4.80
2018-12-10T13:35:59.052Z,4.80
2018-12-10T13:37:04.540Z,4.90
2018-12-10T13:38:12.468Z,5.00
2018-12-10T13:39:17.373Z,5.00
2018-12-10T13:40:22.762Z,5.10
2018-12-10T13:41:28.291Z,5.10
2018-12-10T13:42:33.841Z,5.10
2018-12-10T13:43:39.207Z,5.20
2018-12-10T13:44:44.679Z,5.20
2018-12-10T13:45:50.228Z,5.20
2018-12-10T13:46:55.803Z,5.20
2018-12-10T13:48:02.990Z,5.20
2018-12-10T13:49:08.745Z,5.20
2018-12-10T13:50:14.184Z,5.20
2018-12-10T13:51:19.655Z,5.10
2018-12-10T13:52:25.165Z,5.10
2018-12-10T13:53:30.763Z,5.20
2018-12-10T13:54:36.187Z,5.20
2018-12-10T13:55:41.812Z,5.20
2018-12-10T13:56:47.231Z,5.20
2018-12-10T13:57:52.656Z,5.20
2018-12-10T13:58:58.230Z,5.20
2018-12-10T14:00:03.858Z,5.30
2018-12-10T14:01:09.321Z,5.30
2018-12-10T14:02:14.819Z,5.30
2018-12-10T14:03:20.286Z,5.30
2018-12-10T14:04:29.466Z,5.30
2018-12-10T14:05:34.919Z,5.30
2018-12-10T14:06:40.620Z,5.40
2018-12-10T14:07:48.348Z,5.40
2018-12-10T14:08:53.956Z,5.40
2018-12-10T14:09:59.565Z,5.50
2018-12-10T14:11:04.977Z,5.50
2018-12-10T14:12:10.455Z,5.50
2018-12-10T14:13:16.809Z,5.50
2018-12-10T14:14:22.330Z,5.50
2018-12-10T14:15:27.807Z,5.40
2018-12-10T14:16:33.287Z,5.50
2018-12-10T14:17:38.726Z,5.50
2018-12-10T14:18:44.186Z,5.50
2018-12-10T14:19:49.624Z,5.50
2018-12-10T14:20:55.114Z,5.50
2018-12-10T14:22:00.660Z,5.50
2018-12-10T14:23:06.446Z,5.50
2018-12-10T14:24:11.934Z,5.60
2018-12-10T14:25:25.403Z,5.60
2018-12-10T14:26:30.899Z,5.60
2018-12-10T14:27:36.554Z,5.50
2018-12-10T14:28:42.053Z,5.50
2018-12-10T14:29:47.591Z,5.50
2018-12-10T14:30:53.127Z,5.50
2018-12-10T14:31:58.534Z,5.40
2018-12-10T14:33:03.985Z,5.40
2018-12-10T14:34:14.592Z,5.40
2018-12-10T14:35:20.082Z,5.30